Time;durP1;ratioP1;P1;durP2;ratioP2;P2;SDS_P1;SDS_P2;PMS_P1;PMS_P2;Temp;Humidity;BMP_temperature;BMP_pressure;BME280_temperature;BME280_humidity;BME280_pressure;Samples;Min_cycle;Max_cycle;Signal;HPM_P1;HPM_P2
2023/04/29 00:01:58;;;;;;;11.50;7.97;;;17.00;89.90;;;;;;5093766;28;20075;-61
2023/04/29 00:04:25;;;;;;;12.52;7.78;;;;;;;;;;5056634;28;20048;-61
2023/04/29 00:06:51;;;;;;;12.40;8.43;;;;;;;;;;5092211;28;20054;-62
2023/04/29 00:09:17;;;;;;;12.52;8.38;;;;;;;;;;5092258;28;20087;-62
2023/04/29 00:11:43;;;;;;;12.90;8.25;;;;;;;;;;5090112;28;20039;-63
2023/04/29 00:14:09;;;;;;;11.98;8.20;;;17.00;89.80;;;;;;5101737;28;20100;-62
2023/04/29 00:16:36;;;;;;;13.27;8.60;;;;;;;;;;5112588;28;20047;-62
2023/04/29 00:19:02;;;;;;;9.85;7.97;;;17.20;89.80;;;;;;5112782;28;20065;-61
2023/04/29 00:21:28;;;;;;;13.43;8.18;;;16.80;89.70;;;;;;5091618;28;20476;-62
2023/04/29 00:23:54;;;;;;;12.95;8.68;;;;;;;;;;5094049;28;20048;-61
2023/04/29 00:26:20;;;;;;;13.60;8.75;;;;;;;;;;5094182;28;20054;-61
2023/04/29 00:28:46;;;;;;;13.32;9.00;;;;;;;;;;5090224;28;20113;-62
2023/04/29 00:31:12;;;;;;;13.35;8.30;;;17.00;89.80;;;;;;5088197;28;20119;-61
2023/04/29 00:33:39;;;;;;;16.33;9.05;;;;;;;;;;5093966;28;20060;-61
2023/04/29 00:36:06;;;;;;;12.50;8.00;;;16.80;89.80;;;;;;5095563;28;20106;-61
2023/04/29 00:38:32;;;;;;;11.88;8.10;;;;;;;;;;5094934;28;20052;-62
2023/04/29 00:40:58;;;;;;;13.43;8.32;;;;;;;;;;5094296;28;20509;-64
2023/04/29 00:43:24;;;;;;;12.88;8.60;;;;;;;;;;5094966;28;20040;-61
2023/04/29 00:45:50;;;;;;;13.68;8.50;;;;;;;;;;5092401;28;20060;-61
2023/04/29 00:48:16;;;;;;;12.05;8.80;;;;;;;;;;5091023;28;20045;-61
2023/04/29 00:50:42;;;;;;;13.52;8.63;;;17.00;88.50;;;;;;5057584;28;20052;-62
2023/04/29 00:53:14;;;;;;;14.80;8.93;;;16.80;85.80;;;;;;5089834;28;20128;-62
2023/04/29 00:55:40;;;;;;;11.95;7.95;;;16.70;86.90;;;;;;5094926;28;20122;-61
2023/04/29 00:58:08;;;;;;;13.75;8.68;;;;;;;;;;5077220;28;20051;-65
2023/04/29 01:00:35;;;;;;;11.30;7.72;;;;;;;;;;5094190;28;20048;-62
2023/04/29 01:03:02;;;;;;;10.00;7.15;;;;;;;;;;5088605;28;20044;-61
2023/04/29 01:05:28;;;;;;;10.73;7.57;;;;;;;;;;5086681;28;20576;-61
2023/04/29 01:08:12;;;;;;;13.60;8.63;;;17.00;85.70;;;;;;5093797;28;20079;-61
2023/04/29 01:10:40;;;;;;;11.48;8.68;;;17.00;89.70;;;;;;5077246;28;20055;-61
2023/04/29 01:13:30;;;;;;;13.13;7.95;;;17.00;87.10;;;;;;5056026;28;20444;-61
2023/04/29 01:16:02;;;;;;;12.77;8.38;;;16.80;89.60;;;;;;5056898;28;20063;-61
2023/04/29 01:18:33;;;;;;;13.55;8.43;;;;;;;;;;5077009;28;20131;-61
2023/04/29 01:20:58;;;;;;;13.32;8.27;;;16.80;89.60;;;;;;5093629;28;20052;-62
2023/04/29 01:23:28;;;;;;;11.02;7.85;;;;;;;;;;5071750;28;20044;-66
2023/04/29 01:25:54;;;;;;;10.55;7.40;;;;;;;;;;5078308;28;20048;-65
2023/04/29 01:28:49;;;;;;;13.88;8.10;;;16.70;86.80;;;;;;5093525;28;20064;-65
2023/04/29 01:31:20;;;;;;;12.57;7.70;;;16.80;86.50;;;;;;5093375;28;20040;-62
2023/04/29 01:33:46;;;;;;;11.93;7.55;;;;;;;;;;5068666;28;20059;-62
2023/04/29 01:36:12;;;;;;;13.32;7.35;;;;;;;;;;5073391;28;20573;-61
2023/04/29 01:38:47;;;;;;;15.20;7.75;;;16.80;86.70;;;;;;5089539;28;20109;-61
2023/04/29 01:41:31;;;;;;;13.02;7.35;;;17.00;86.10;;;;;;5093549;28;20052;-62
2023/04/29 01:43:57;;;;;;;11.77;7.30;;;;;;;;;;5090431;28;20394;-62
2023/04/29 01:46:23;;;;;;;11.38;6.72;;;16.90;89.50;;;;;;5093457;28;20127;-62
2023/04/29 01:48:53;;;;;;;12.13;7.28;;;16.70;86.40;;;;;;5092981;28;20139;-62
2023/04/29 01:51:18;;;;;;;11.02;7.00;;;17.10;89.70;;;;;;5079306;28;20071;-65
2023/04/29 01:53:44;;;;;;;10.25;6.93;;;;;;;;;;5084190;28;20052;-65
2023/04/29 01:56:11;;;;;;;10.23;6.97;;;;;;;;;;5066067;28;20053;-65
2023/04/29 01:58:37;;;;;;;11.20;6.80;;;;;;;;;;5094046;28;20048;-61
2023/04/29 02:01:03;;;;;;;11.07;7.65;;;;;;;;;;5093622;28;20161;-61
2023/04/29 02:03:29;;;;;;;12.00;7.65;;;16.80;88.10;;;;;;5092557;28;20439;-61
2023/04/29 02:05:55;;;;;;;11.63;7.45;;;;;;;;;;5092698;28;20127;-62
2023/04/29 02:08:21;;;;;;;11.88;7.03;;;16.90;89.40;;;;;;5092925;28;20052;-61
2023/04/29 02:10:54;;;;;;;11.13;7.32;;;;;;;;;;5093458;28;20036;-61
2023/04/29 02:13:20;;;;;;;11.07;7.25;;;;;;;;;;5073954;28;20166;-61
2023/04/29 02:15:45;;;;;;;12.05;7.30;;;16.80;89.30;;;;;;5092874;28;20610;-62
2023/04/29 02:18:12;;;;;;;11.90;7.00;;;;;;;;;;5094440;28;20114;-62
2023/04/29 02:20:37;;;;;;;12.50;7.32;;;16.70;89.30;;;;;;5092706;28;20044;-62
2023/04/29 02:23:03;;;;;;;11.68;7.13;;;16.90;89.40;;;;;;5092310;28;20051;-61
2023/04/29 02:25:29;;;;;;;13.00;7.70;;;;;;;;;;5089962;28;20052;-62
2023/04/29 02:27:55;;;;;;;14.00;7.95;;;;;;;;;;5102846;28;20051;-61
2023/04/29 02:30:21;;;;;;;13.57;7.65;;;16.70;89.20;;;;;;5059192;28;20056;-61
2023/04/29 02:32:47;;;;;;;12.80;7.30;;;;;;;;;;5075670;28;20451;-61
2023/04/29 02:35:13;;;;;;;12.20;7.38;;;17.00;89.30;;;;;;5079977;28;20074;-62
2023/04/29 02:37:39;;;;;;;11.30;7.15;;;16.90;87.00;;;;;;5094756;28;20071;-61
2023/04/29 02:40:06;;;;;;;12.82;6.93;;;16.90;89.40;;;;;;5112373;28;20047;-62
2023/04/29 02:42:32;;;;;;;13.98;7.75;;;;;;;;;;5095080;28;20055;-63
2023/04/29 02:44:58;;;;;;;11.50;6.90;;;;;;;;;;5111900;28;20043;-62
2023/04/29 02:47:23;;;;;;;10.60;6.78;;;16.70;89.20;;;;;;5111405;28;20075;-61
2023/04/29 02:49:50;;;;;;;14.75;7.35;;;;;;;;;;5114014;28;20086;-62
2023/04/29 02:52:18;;;;;;;12.30;6.53;;;16.90;89.30;;;;;;5111064;28;20043;-62
2023/04/29 02:54:44;;;;;;;12.48;6.00;;;16.90;88.70;;;;;;5111733;28;20047;-62
2023/04/29 02:57:10;;;;;;;11.45;6.70;;;;;;;;;;5092758;28;20047;-62
2023/04/29 02:59:36;;;;;;;10.52;5.95;;;16.70;89.30;;;;;;5112778;28;20049;-61
2023/04/29 03:02:02;;;;;;;9.65;6.00;;;;;;;;;;5110423;28;20052;-62
2023/04/29 03:04:28;;;;;;;10.10;6.43;;;16.80;89.30;;;;;;5091770;28;20047;-63
2023/04/29 03:06:57;;;;;;;11.55;6.05;;;17.00;89.30;;;;;;5074238;28;20105;-62
2023/04/29 03:09:23;;;;;;;10.93;6.00;;;16.90;89.30;;;;;;5059123;28;20135;-62
2023/04/29 03:11:49;;;;;;;11.15;6.18;;;;;;;;;;5074863;28;20503;-61
2023/04/29 03:14:15;;;;;;;10.80;6.68;;;16.90;87.30;;;;;;5094421;28;20047;-61
2023/04/29 03:16:42;;;;;;;10.20;6.32;;;;;;;;;;5077321;28;20157;-61
2023/04/29 03:19:09;;;;;;;9.57;5.75;;;;;;;;;;5094627;28;20063;-62
2023/04/29 03:21:35;;;;;;;10.35;6.00;;;16.80;89.30;;;;;;5113436;28;20085;-61
2023/04/29 03:24:01;;;;;;;11.90;6.03;;;;;;;;;;5089855;28;20075;-62
2023/04/29 03:26:26;;;;;;;13.68;6.35;;;16.80;89.10;;;;;;5112026;28;20050;-61
2023/04/29 03:28:52;;;;;;;13.55;6.22;;;;;;;;;;5111794;28;20737;-62
2023/04/29 03:31:20;;;;;;;10.77;6.38;;;16.90;89.20;;;;;;5094845;28;20513;-62
2023/04/29 03:33:45;;;;;;;13.90;6.22;;;16.80;89.30;;;;;;5111108;28;20054;-62
2023/04/29 03:36:12;;;;;;;11.13;5.95;;;16.80;89.20;;;;;;5060832;28;20043;-62
2023/04/29 03:38:38;;;;;;;10.43;5.90;;;;;;;;;;5112606;28;20096;-63
2023/04/29 03:41:04;;;;;;;13.77;6.18;;;16.80;87.60;;;;;;5111648;28;20481;-62
2023/04/29 03:43:30;;;;;;;9.85;6.13;;;16.80;89.30;;;;;;5094262;28;20100;-63
2023/04/29 03:45:55;;;;;;;9.75;5.57;;;17.00;88.80;;;;;;5093714;28;20472;-61
2023/04/29 03:48:21;;;;;;;9.45;6.00;;;17.00;89.40;;;;;;5113118;28;20044;-61
2023/04/29 03:50:47;;;;;;;8.50;5.72;;;16.80;89.40;;;;;;5112712;28;20027;-62
2023/04/29 03:53:13;;;;;;;8.45;5.93;;;16.70;89.20;;;;;;5105813;28;20488;-61
2023/04/29 03:55:39;;;;;;;11.25;6.13;;;;;;;;;;5094544;28;20095;-63
2023/04/29 03:58:05;;;;;;;11.13;6.75;;;;;;;;;;5093686;28;20035;-62
2023/04/29 04:00:31;;;;;;;13.85;6.65;;;;;;;;;;5094294;28;20108;-62
2023/04/29 04:02:58;;;;;;;9.80;6.53;;;17.00;89.40;;;;;;5076687;28;20511;-61
2023/04/29 04:05:24;;;;;;;10.48;6.25;;;;;;;;;;5077463;28;20126;-61
2023/04/29 04:07:53;;;;;;;11.52;6.95;;;;;;;;;;5114615;28;20055;-62
2023/04/29 04:10:19;;;;;;;11.75;7.13;;;17.00;89.40;;;;;;5112458;28;20047;-61
2023/04/29 04:12:46;;;;;;;10.85;6.47;;;;;;;;;;5063593;28;20059;-63
2023/04/29 04:15:12;;;;;;;12.85;7.25;;;16.80;89.30;;;;;;5078639;28;20071;-61
2023/04/29 04:17:38;;;;;;;11.15;6.80;;;16.80;89.30;;;;;;5114469;28;20482;-62
2023/04/29 04:20:04;;;;;;;12.95;7.47;;;17.00;89.40;;;;;;5097964;28;20132;-62
2023/04/29 04:22:30;;;;;;;11.50;7.10;;;;;;;;;;5063785;28;20051;-61
2023/04/29 04:24:56;;;;;;;12.35;7.15;;;16.70;89.10;;;;;;5097896;28;20047;-64
2023/04/29 04:27:22;;;;;;;11.32;6.82;;;16.70;89.20;;;;;;5075483;28;20523;-61
2023/04/29 04:29:48;;;;;;;13.48;7.07;;;16.80;89.30;;;;;;5095220;28;20602;-61
2023/04/29 04:32:14;;;;;;;12.07;7.13;;;;;;;;;;5075612;28;20040;-63
2023/04/29 04:34:40;;;;;;;13.60;7.43;;;;;;;;;;5094828;28;20512;-62
2023/04/29 04:37:06;;;;;;;12.00;6.65;;;;;;;;;;5077401;28;20078;-63
2023/04/29 04:39:32;;;;;;;12.70;7.63;;;16.70;89.20;;;;;;5093861;28;20082;-62
2023/04/29 04:41:57;;;;;;;14.10;7.50;;;16.90;89.30;;;;;;5092983;28;20075;-61
2023/04/29 04:44:23;;;;;;;10.55;6.93;;;16.70;89.20;;;;;;5090112;28;20102;-61
2023/04/29 04:46:52;;;;;;;12.55;6.80;;;16.70;84.80;;;;;;5091625;28;20036;-62
2023/04/29 04:49:18;;;;;;;12.85;7.75;;;;;;;;;;5092435;28;20082;-62
2023/04/29 04:51:44;;;;;;;11.25;7.13;;;;;;;;;;5092952;28;20386;-62
2023/04/29 04:54:11;;;;;;;12.23;6.65;;;16.40;89.00;;;;;;5094036;28;20040;-61
2023/04/29 04:56:36;;;;;;;10.77;7.00;;;16.70;86.40;;;;;;5094493;28;20493;-62
2023/04/29 04:59:03;;;;;;;12.45;7.47;;;;;;;;;;5093018;28;20055;-62
2023/04/29 05:01:29;;;;;;;16.85;7.95;;;16.90;89.30;;;;;;5093570;28;20083;-61
2023/04/29 05:03:54;;;;;;;10.98;6.68;;;16.80;89.30;;;;;;5093362;28;20051;-62
2023/04/29 05:06:20;;;;;;;12.85;7.03;;;16.90;89.30;;;;;;5076975;28;20554;-61
2023/04/29 05:08:46;;;;;;;12.75;7.05;;;;;;;;;;5092856;28;20542;-61
2023/04/29 05:11:19;;;;;;;13.88;7.45;;;16.60;86.10;;;;;;5094313;28;20059;-63
2023/04/29 05:13:45;;;;;;;11.48;7.15;;;16.60;89.10;;;;;;5093066;28;20108;-61
2023/04/29 05:16:11;;;;;;;10.68;6.35;;;16.40;89.00;;;;;;5094263;28;20122;-62
2023/04/29 05:18:37;;;;;;;9.98;6.15;;;;;;;;;;5092829;28;20036;-61
2023/04/29 05:21:03;;;;;;;12.45;6.78;;;16.70;86.60;;;;;;5094704;28;20607;-62
2023/04/29 05:23:29;;;;;;;10.68;6.18;;;16.90;88.70;;;;;;5093893;28;20134;-61
2023/04/29 05:25:55;;;;;;;12.02;6.10;;;16.70;89.00;;;;;;5077124;28;20047;-61
2023/04/29 05:28:21;;;;;;;11.00;6.22;;;;;;;;;;5092543;28;20052;-62
2023/04/29 05:30:50;;;;;;;11.07;7.10;;;16.80;86.00;;;;;;5083202;28;20049;-64
2023/04/29 05:33:15;;;;;;;12.82;6.55;;;17.00;87.50;;;;;;5062492;28;20127;-63
2023/04/29 05:35:41;;;;;;;10.55;6.50;;;16.60;88.80;;;;;;5093065;28;20178;-61
2023/04/29 05:38:07;;;;;;;8.43;5.70;;;;;;;;;;5094521;28;20048;-61
2023/04/29 05:40:34;;;;;;;10.68;6.18;;;;;;;;;;5094248;28;20040;-63
2023/04/29 05:43:00;;;;;;;11.23;5.97;;;17.10;89.10;;;;;;5093472;28;20131;-61
2023/04/29 05:45:26;;;;;;;11.63;5.95;;;;;;;;;;5093987;28;20446;-61
2023/04/29 05:47:52;;;;;;;12.32;6.03;;;;;;;;;;5093135;28;20079;-68
2023/04/29 05:50:18;;;;;;;9.77;6.30;;;;;;;;;;5093318;28;20156;-68
2023/04/29 05:52:44;;;;;;;11.98;5.93;;;17.00;88.90;;;;;;5089453;28;20040;-67
2023/04/29 05:55:10;;;;;;;10.43;6.05;;;16.90;88.80;;;;;;5094310;28;20043;-67
2023/04/29 05:57:36;;;;;;;9.18;5.63;;;16.80;88.60;;;;;;5084113;28;20039;-68
2023/04/29 06:00:02;;;;;;;8.73;5.57;;;17.00;88.70;;;;;;5090448;28;20040;-61
2023/04/29 06:02:28;;;;;;;10.05;5.55;;;17.20;88.80;;;;;;5086952;28;20131;-61
2023/04/29 06:04:54;;;;;;;7.93;5.32;;;;;;;;;;5075089;28;20119;-67
2023/04/29 06:07:20;;;;;;;9.23;5.65;;;17.10;88.80;;;;;;5094188;28;20048;-68
2023/04/29 06:09:46;;;;;;;8.68;5.05;;;;;;;;;;5090056;28;20044;-67
2023/04/29 06:12:12;;;;;;;8.93;5.43;;;17.00;88.70;;;;;;5094441;28;20048;-62
2023/04/29 06:14:38;;;;;;;9.18;5.53;;;;;;;;;;5092161;28;20058;-62
2023/04/29 06:17:04;;;;;;;9.18;4.82;;;17.10;87.60;;;;;;5093342;28;20040;-61
2023/04/29 06:19:32;;;;;;;9.27;5.45;;;;;;;;;;5087796;28;20048;-61
2023/04/29 06:21:58;;;;;;;9.13;5.57;;;16.90;88.60;;;;;;5090685;28;20048;-61
2023/04/29 06:24:24;;;;;;;7.70;5.03;;;17.40;88.80;;;;;;5094399;28;20054;-61
2023/04/29 06:26:50;;;;;;;9.05;5.18;;;;;;;;;;5085570;28;20040;-61
2023/04/29 06:29:16;;;;;;;9.27;5.45;;;17.10;88.50;;;;;;5104444;28;20051;-61
2023/04/29 06:31:41;;;;;;;7.43;4.90;;;17.10;88.50;;;;;;5107285;28;20366;-61
2023/04/29 06:34:07;;;;;;;8.77;4.95;;;17.20;88.30;;;;;;5095794;28;20046;-62
2023/04/29 06:36:33;;;;;;;9.30;5.07;;;17.50;85.80;;;;;;5096135;28;20085;-65
2023/04/29 06:38:59;;;;;;;10.35;4.93;;;;;;;;;;5114064;28;20043;-64
2023/04/29 06:41:26;;;;;;;8.00;5.10;;;;;;;;;;5109320;28;20040;-66
2023/04/29 06:43:52;;;;;;;9.70;5.20;;;;;;;;;;5102393;28;20043;-64
2023/04/29 06:46:18;;;;;;;11.52;4.93;;;17.40;88.00;;;;;;5095895;28;20055;-65
2023/04/29 06:48:44;;;;;;;9.77;5.18;;;;;;;;;;5113799;28;20117;-64
2023/04/29 06:51:10;;;;;;;10.27;4.45;;;17.60;88.00;;;;;;5088633;28;20036;-64
2023/04/29 06:53:36;;;;;;;11.73;4.60;;;;;;;;;;5110550;28;20489;-69
2023/04/29 06:56:02;;;;;;;9.27;4.97;;;17.80;87.90;;;;;;5095659;28;20374;-62
2023/04/29 06:58:28;;;;;;;10.30;4.93;;;;;;;;;;5094805;28;20081;-64
2023/04/29 07:00:54;;;;;;;8.88;4.68;;;18.00;87.60;;;;;;5112387;28;20445;-68
2023/04/29 07:03:20;;;;;;;9.30;4.50;;;;;;;;;;5093533;28;20127;-66
2023/04/29 07:05:46;;;;;;;8.18;4.55;;;;;;;;;;5091365;28;20126;-64
2023/04/29 07:08:13;;;;;;;7.55;4.28;;;;;;;;;;5086739;28;20044;-61
2023/04/29 07:10:39;;;;;;;8.20;4.60;;;18.30;87.00;;;;;;5110338;28;20088;-66
2023/04/29 07:13:04;;;;;;;8.95;4.90;;;18.50;84.60;;;;;;5094151;28;20397;-66
2023/04/29 07:15:33;;;;;;;7.57;4.78;;;18.60;86.80;;;;;;5094911;28;20050;-62
2023/04/29 07:17:59;;;;;;;6.95;4.15;;;18.70;84.00;;;;;;5065555;28;20044;-62
2023/04/29 07:20:26;;;;;;;8.85;4.18;;;18.60;83.70;;;;;;5089448;28;20047;-61
2023/04/29 07:22:52;;;;;;;8.30;4.60;;;;;;;;;;5094731;28;20055;-61
2023/04/29 07:25:18;;;;;;;7.47;4.55;;;18.90;83.70;;;;;;5113371;28;20059;-62
2023/04/29 07:27:44;;;;;;;8.75;4.30;;;18.90;86.10;;;;;;5088949;28;20059;-62
2023/04/29 07:30:10;;;;;;;10.43;4.10;;;19.00;85.50;;;;;;5089458;28;20048;-66
2023/04/29 07:32:36;;;;;;;9.88;4.20;;;19.30;85.90;;;;;;5092659;28;20040;-67
2023/04/29 07:35:02;;;;;;;7.88;4.20;;;19.40;81.90;;;;;;5083919;28;20123;-66
2023/04/29 07:37:28;;;;;;;8.50;4.60;;;;;;;;;;5082690;28;20044;-62
2023/04/29 07:39:54;;;;;;;8.65;4.20;;;19.60;85.40;;;;;;5080193;28;20048;-61
2023/04/29 07:42:20;;;;;;;8.43;4.25;;;;;;;;;;5081488;28;20059;-62
2023/04/29 07:44:46;;;;;;;8.95;4.22;;;19.40;84.80;;;;;;5078902;28;20119;-61
2023/04/29 07:47:12;;;;;;;8.05;4.70;;;;;;;;;;5082971;28;20109;-62
2023/04/29 07:49:39;;;;;;;7.25;4.28;;;;;;;;;;5067744;28;20047;-64
2023/04/29 07:52:06;;;;;;;6.50;4.20;;;20.00;84.80;;;;;;5096700;28;20048;-61
2023/04/29 07:54:32;;;;;;;8.50;4.63;;;20.00;84.60;;;;;;5071465;28;20051;-62
2023/04/29 07:56:58;;;;;;;6.82;3.83;;;20.10;84.40;;;;;;5075213;28;20043;-61
2023/04/29 07:59:24;;;;;;;6.88;4.05;;;;;;;;;;5089161;28;20054;-62
2023/04/29 08:01:51;;;;;;;7.90;4.07;;;20.00;84.10;;;;;;5070357;28;20136;-62
2023/04/29 08:04:16;;;;;;;7.72;4.00;;;20.10;84.00;;;;;;5087691;28;20415;-62
2023/04/29 08:06:43;;;;;;;7.32;4.00;;;;;;;;;;5081756;28;20131;-62
2023/04/29 08:09:09;;;;;;;7.72;3.85;;;20.30;83.70;;;;;;5081561;28;20045;-62
2023/04/29 08:11:35;;;;;;;11.07;3.90;;;20.20;83.80;;;;;;5091158;28;20098;-62
2023/04/29 08:14:01;;;;;;;6.95;4.00;;;20.50;83.80;;;;;;5091465;28;20043;-62
2023/04/29 08:16:27;;;;;;;7.68;4.10;;;;;;;;;;5086109;28;20044;-62
2023/04/29 08:18:53;;;;;;;7.90;4.13;;;20.60;83.70;;;;;;5079780;28;20070;-62
2023/04/29 08:21:19;;;;;;;8.15;3.90;;;;;;;;;;5071439;28;20044;-62
2023/04/29 08:23:46;;;;;;;6.45;3.95;;;;;;;;;;5092754;28;20089;-63
2023/04/29 08:26:11;;;;;;;7.82;3.33;;;20.50;83.40;;;;;;5087933;28;20040;-62
2023/04/29 08:28:38;;;;;;;6.88;3.10;;;20.70;83.40;;;;;;5092280;28;20051;-61
2023/04/29 08:31:07;;;;;;;7.28;4.00;;;20.40;83.20;;;;;;5093766;28;20048;-62
2023/04/29 08:33:33;;;;;;;7.32;3.60;;;20.70;83.30;;;;;;5074379;28;20044;-61
2023/04/29 08:36:02;;;;;;;8.55;3.30;;;20.90;82.60;;;;;;5092580;28;20401;-62
2023/04/29 08:38:30;;;;;;;8.70;3.33;;;20.70;83.10;;;;;;5079562;28;20124;-62
2023/04/29 08:40:56;;;;;;;8.80;3.72;;;20.80;83.20;;;;;;5094459;28;20040;-61
2023/04/29 08:43:22;;;;;;;7.03;3.63;;;20.90;79.30;;;;;;5097691;28;20046;-63
2023/04/29 08:45:48;;;;;;;7.72;3.40;;;20.80;83.10;;;;;;5093345;28;20485;-62
2023/04/29 08:48:17;;;;;;;6.22;3.53;;;20.90;82.50;;;;;;5109787;28;20058;-62
2023/04/29 08:50:43;;;;;;;12.65;3.30;;;20.90;83.00;;;;;;5086823;28;20100;-67
2023/04/29 08:53:10;;;;;;;9.32;3.80;;;20.70;82.80;;;;;;5109117;28;20488;-65
2023/04/29 08:55:40;;;;;;;9.55;3.17;;;21.00;79.80;;;;;;5116362;28;20047;-61
2023/04/29 08:58:06;;;;;;;10.55;3.58;;;20.80;81.80;;;;;;5096028;28;20039;-61
2023/04/29 09:00:32;;;;;;;13.98;3.25;;;20.70;79.70;;;;;;5091631;28;20108;-65
2023/04/29 09:02:58;;;;;;;19.45;3.95;;;;;;;;;;5078288;28;20050;-63
2023/04/29 09:05:25;;;;;;;7.32;3.40;;;21.00;79.80;;;;;;5111382;28;20043;-61
2023/04/29 09:07:52;;;;;;;8.10;3.35;;;21.10;83.00;;;;;;5113055;28;20082;-62
2023/04/29 09:10:17;;;;;;;9.48;3.53;;;20.90;83.00;;;;;;5065049;28;20035;-61
2023/04/29 09:12:45;;;;;;;9.35;3.63;;;;;;;;;;5096664;28;20451;-61
2023/04/29 09:15:11;;;;;;;9.15;3.17;;;20.80;79.30;;;;;;5114842;28;20171;-61
2023/04/29 09:17:47;;;;;;;11.05;3.53;;;21.00;78.90;;;;;;5116158;28;20068;-61
2023/04/29 09:20:21;;;;;;;10.15;3.10;;;21.00;78.60;;;;;;5080520;28;20126;-63
2023/04/29 09:22:52;;;;;;;9.02;2.80;;;21.10;79.90;;;;;;5114072;28;20483;-62
2023/04/29 09:25:18;;;;;;;6.50;3.00;;;21.10;81.90;;;;;;5088554;28;20385;-62
2023/04/29 09:27:44;;;;;;;7.60;2.92;;;21.00;83.00;;;;;;5086960;28;21756;-65
2023/04/29 09:30:11;;;;;;;9.55;2.95;;;21.20;82.40;;;;;;5099462;28;20128;-65
2023/04/29 09:32:37;;;;;;;7.25;3.15;;;;;;;;;;5080272;28;20459;-64
2023/04/29 09:35:23;;;;;;;7.10;3.22;;;21.10;79.10;;;;;;5082969;28;20493;-64
2023/04/29 09:37:49;;;;;;;7.43;2.75;;;20.90;83.10;;;;;;5096723;28;20047;-63
2023/04/29 09:40:33;;;;;;;11.68;3.40;;;20.80;80.40;;;;;;5097335;28;20047;-64
2023/04/29 09:42:59;;;;;;;6.07;2.70;;;21.10;81.70;;;;;;5082066;28;20044;-64
2023/04/29 09:45:38;;;;;;;6.07;2.75;;;;;;;;;;5081128;28;20043;-66
2023/04/29 09:48:05;;;;;;;6.32;2.90;;;21.30;81.00;;;;;;5092165;28;20058;-62
2023/04/29 09:50:38;;;;;;;8.15;3.33;;;21.10;83.10;;;;;;5097863;28;20052;-62
2023/04/29 09:53:08;;;;;;;6.78;3.00;;;21.20;80.20;;;;;;5097264;28;20591;-61
2023/04/29 09:55:56;;;;;;;8.52;2.88;;;21.00;83.20;;;;;;5105026;28;20044;-61
2023/04/29 09:58:30;;;;;;;5.97;2.72;;;21.20;83.10;;;;;;5113432;28;20035;-61
2023/04/29 10:01:00;;;;;;;7.30;3.03;;;21.10;83.40;;;;;;5096761;28;20047;-62
2023/04/29 10:03:33;;;;;;;7.60;2.88;;;21.00;83.30;;;;;;5096657;28;20048;-62
2023/04/29 10:06:00;;;;;;;9.00;3.17;;;;;;;;;;5111877;28;20083;-62
2023/04/29 10:08:26;;;;;;;6.80;2.67;;;21.30;83.50;;;;;;5105635;28;20485;-62
2023/04/29 10:10:56;;;;;;;6.90;2.92;;;21.10;83.30;;;;;;5095359;28;20388;-61
2023/04/29 10:13:25;;;;;;;7.18;2.60;;;20.90;83.40;;;;;;5096762;28;20047;-62
2023/04/29 10:16:06;;;;;;;6.63;3.08;;;21.20;80.30;;;;;;5096087;28;20043;-63
2023/04/29 10:18:36;;;;;;;6.07;2.63;;;20.90;80.70;;;;;;5079574;28;20051;-62
2023/04/29 10:21:03;;;;;;;8.27;2.95;;;21.10;83.40;;;;;;5113473;28;20039;-63
2023/04/29 10:23:29;;;;;;;6.15;2.88;;;21.10;79.80;;;;;;5093548;28;20473;-62
2023/04/29 10:25:55;;;;;;;6.78;3.20;;;;;;;;;;5078162;28;20105;-63
2023/04/29 10:28:21;;;;;;;10.10;3.30;;;21.00;83.10;;;;;;5102095;28;20048;-62
2023/04/29 10:30:50;;;;;;;12.50;5.10;;;20.80;79.70;;;;;;5108589;28;20118;-62
2023/04/29 10:33:16;;;;;;;11.60;3.80;;;21.10;81.90;;;;;;5111261;28;20036;-64
2023/04/29 10:35:43;;;;;;;7.40;3.30;;;20.90;79.80;;;;;;5096255;28;20088;-63
2023/04/29 10:38:13;;;;;;;8.85;3.30;;;20.90;82.90;;;;;;5114488;28;20046;-62
2023/04/29 10:40:47;;;;;;;11.80;3.28;;;21.00;81.90;;;;;;5078905;28;20495;-62
2023/04/29 10:43:13;;;;;;;8.30;3.40;;;;;;;;;;5077872;28;20043;-62
2023/04/29 10:45:39;;;;;;;7.55;3.78;;;;;;;;;;5113625;28;20515;-64
2023/04/29 10:48:12;;;;;;;10.30;3.42;;;20.90;78.50;;;;;;5095890;28;20082;-62
2023/04/29 10:50:38;;;;;;;;;;;;;;;;;;5112662;28;20056;-65
2023/04/29 10:53:04;;;;;;;8.50;3.25;;;;;;;;;;5112694;28;20332;-62
2023/04/29 10:55:30;;;;;;;10.23;3.97;;;21.20;83.20;;;;;;5113677;28;20121;-61
2023/04/29 10:57:57;;;;;;;5.95;3.20;;;;;;;;;;5074739;28;20153;-64
2023/04/29 11:00:26;;;;;;;7.03;3.40;;;21.00;79.30;;;;;;5075404;28;20047;-63
2023/04/29 11:02:59;;;;;;;8.10;2.83;;;21.10;80.70;;;;;;5092285;28;20067;-63
2023/04/29 11:05:32;;;;;;;15.77;8.73;;;;;;;;;;5101618;28;20499;-62
2023/04/29 11:08:11;;;;;;;12.55;5.88;;;;;;;;;;5092803;28;20058;-62
2023/04/29 11:10:37;;;;;;;11.57;4.20;;;;;;;;;;5089639;28;20051;-62
2023/04/29 11:13:23;;;;;;;8.27;4.45;;;21.20;79.00;;;;;;5092297;28;20043;-63
2023/04/29 11:15:50;;;;;;;11.85;3.95;;;20.90;82.20;;;;;;5066683;28;20397;-62
2023/04/29 11:18:16;;;;;;;8.02;3.08;;;;;;;;;;5095343;28;20055;-62
2023/04/29 11:21:04;;;;;;;7.35;3.20;;;20.80;78.40;;;;;;5112150;28;20043;-64
2023/04/29 11:23:31;;;;;;;10.02;3.17;;;;;;;;;;5110050;28;20074;-63
2023/04/29 11:25:57;;;;;;;7.00;3.10;;;21.10;80.60;;;;;;5111873;28;20454;-63
2023/04/29 11:28:26;;;;;;;6.75;2.80;;;20.90;78.40;;;;;;5071149;28;20135;-64
2023/04/29 11:30:52;;;;;;;8.75;3.10;;;20.90;83.10;;;;;;5072602;28;20040;-64
2023/04/29 11:33:21;;;;;;;7.43;3.00;;;20.80;78.60;;;;;;5083682;28;20055;-63
2023/04/29 11:35:47;;;;;;;6.35;2.60;;;21.10;80.30;;;;;;5091574;28;20039;-66
2023/04/29 11:38:13;;;;;;;5.63;2.70;;;;;;;;;;5092084;28;20088;-66
2023/04/29 11:40:49;;;;;;;6.65;2.30;;;;;;;;;;5092644;28;20051;-64
2023/04/29 11:43:18;;;;;;;6.30;2.50;;;21.10;83.10;;;;;;5091252;28;20040;-63
2023/04/29 11:45:47;;;;;;;8.77;2.65;;;21.10;80.60;;;;;;5089845;28;20052;-63
2023/04/29 11:48:23;;;;;;;12.93;3.33;;;21.10;78.60;;;;;;5088798;28;20052;-62
2023/04/29 11:50:53;;;;;;;8.73;3.17;;;21.30;78.60;;;;;;5079170;28;20569;-63
2023/04/29 11:53:20;;;;;;;10.43;2.90;;;21.10;82.20;;;;;;5087204;28;20048;-68
2023/04/29 11:55:46;;;;;;;7.35;3.40;;;;;;;;;;5090881;28;20036;-68
2023/04/29 11:58:12;;;;;;;6.70;2.58;;;;;;;;;;5087492;28;20132;-67
2023/04/29 12:00:38;;;;;;;8.07;2.88;;;21.20;82.30;;;;;;5086520;28;20056;-61
2023/04/29 12:03:14;;;;;;;5.13;2.70;;;21.00;77.90;;;;;;5089455;28;20465;-61
2023/04/29 12:05:46;;;;;;;5.13;2.47;;;;;;;;;;5071006;28;20058;-62
2023/04/29 12:08:13;;;;;;;5.70;2.00;;;;;;;;;;5089328;28;20044;-64
2023/04/29 12:10:38;;;;;;;5.75;2.40;;;21.10;81.90;;;;;;5088611;28;20055;-62
2023/04/29 12:13:04;;;;;;;6.63;2.55;;;20.90;81.60;;;;;;5089874;28;20596;-61
2023/04/29 12:15:31;;;;;;;6.95;2.83;;;;;;;;;;5090660;28;20044;-63
2023/04/29 12:17:57;;;;;;;8.43;2.80;;;20.70;81.50;;;;;;5090735;28;20058;-62
2023/04/29 12:20:22;;;;;;;8.40;2.58;;;21.10;81.80;;;;;;5085521;28;20045;-61
2023/04/29 12:22:49;;;;;;;6.25;2.40;;;;;;;;;;5088778;28;20482;-62
2023/04/29 12:25:15;;;;;;;6.35;2.70;;;21.00;81.90;;;;;;5076841;28;20044;-61
2023/04/29 12:27:44;;;;;;;8.63;2.13;;;21.00;80.40;;;;;;5085720;28;20105;-61
2023/04/29 12:30:10;;;;;;;6.72;2.30;;;21.00;78.80;;;;;;5114271;28;20070;-61
2023/04/29 12:32:36;;;;;;;5.20;2.50;;;20.80;78.80;;;;;;5114066;28;20039;-61
2023/04/29 12:35:02;;;;;;;5.10;2.28;;;;;;;;;;5076605;28;20045;-64
2023/04/29 12:37:28;;;;;;;10.05;2.70;;;;;;;;;;5116236;28;20043;-61
2023/04/29 12:39:54;;;;;;;5.63;2.05;;;21.10;81.90;;;;;;5114199;28;20048;-61
2023/04/29 12:42:20;;;;;;;5.35;2.55;;;;;;;;;;5115982;28;20113;-62
2023/04/29 12:44:47;;;;;;;4.80;2.25;;;;;;;;;;5116423;28;20497;-62
2023/04/29 12:47:13;;;;;;;7.35;2.53;;;21.10;82.10;;;;;;5116267;28;20043;-61
2023/04/29 12:49:46;;;;;;;6.47;2.13;;;21.10;78.20;;;;;;5115309;28;20185;-61
2023/04/29 12:52:12;;;;;;;6.38;2.05;;;;;;;;;;5116586;28;20039;-63
2023/04/29 12:54:42;;;;;;;6.28;2.40;;;;;;;;;;5096440;28;20048;-62
2023/04/29 12:57:08;;;;;;;4.88;2.22;;;20.90;81.90;;;;;;5112650;28;20430;-62
2023/04/29 12:59:34;;;;;;;4.88;2.15;;;20.90;81.90;;;;;;5093974;28;20046;-62
2023/04/29 13:02:00;;;;;;;6.40;2.20;;;20.90;81.70;;;;;;5109598;28;20036;-62
2023/04/29 13:04:26;;;;;;;8.48;2.60;;;21.00;82.10;;;;;;5095315;28;20048;-61
2023/04/29 13:06:58;;;;;;;6.00;2.50;;;21.00;79.10;;;;;;5095084;28;20044;-64
2023/04/29 13:09:25;;;;;;;4.40;1.85;;;;;;;;;;5077406;28;20554;-62
2023/04/29 13:11:50;;;;;;;4.95;2.08;;;20.90;81.40;;;;;;5111222;28;20081;-62
2023/04/29 13:14:17;;;;;;;5.55;2.33;;;21.10;82.40;;;;;;5094404;28;20047;-62
2023/04/29 13:16:44;;;;;;;7.57;2.13;;;20.80;80.70;;;;;;5112464;28;20126;-63
2023/04/29 13:19:10;;;;;;;6.05;2.08;;;20.80;82.20;;;;;;5115456;28;20051;-61
2023/04/29 13:21:36;;;;;;;3.00;1.70;;;20.90;82.20;;;;;;5097613;28;20046;-61
2023/04/29 13:24:01;;;;;;;6.93;2.50;;;20.80;81.90;;;;;;5113659;28;20115;-63